createdAt,value
2023-02-22T00:01:50.789Z,33.63
2023-02-22T00:04:21.122Z,37.42
2023-02-22T00:06:50.018Z,34.47
2023-02-22T00:09:21.313Z,35.25
2023-02-22T00:11:49.757Z,39.20
2023-02-22T00:14:20.200Z,38.70
2023-02-22T00:16:47.952Z,40.58
2023-02-22T00:19:15.715Z,37.78
2023-02-22T00:21:44.774Z,35.58
2023-02-22T00:24:23.151Z,32.17
2023-02-22T00:26:55.383Z,34.95
2023-02-22T00:29:24.067Z,35.75
2023-02-22T00:31:51.921Z,35.45
2023-02-22T00:34:19.700Z,35.03
2023-02-22T00:36:48.188Z,32.35
2023-02-22T00:39:16.120Z,33.55
2023-02-22T00:41:44.286Z,30.02
2023-02-22T00:44:13.410Z,27.35
2023-02-22T00:46:41.153Z,28.77
2023-02-22T00:49:08.858Z,25.67
2023-02-22T00:51:36.724Z,33.80
2023-02-22T00:54:05.326Z,28.65
2023-02-22T00:56:34.508Z,25.70
2023-02-22T00:59:02.281Z,27.15
2023-02-22T01:01:31.997Z,26.83
2023-02-22T01:03:59.718Z,25.75
2023-02-22T01:06:27.471Z,28.02
2023-02-22T01:08:55.094Z,35.45
2023-02-22T01:11:25.309Z,25.48
2023-02-22T01:13:54.081Z,28.90
2023-02-22T01:16:22.703Z,25.08
2023-02-22T01:18:51.907Z,22.83
2023-02-22T01:21:19.728Z,24.08
2023-02-22T01:23:47.638Z,24.85
2023-02-22T01:26:15.361Z,22.15
2023-02-22T01:28:43.010Z,23.67
2023-02-22T01:31:12.410Z,24.75
2023-02-22T01:33:41.530Z,24.35
2023-02-22T01:36:11.392Z,22.33
2023-02-22T01:38:39.522Z,22.92
2023-02-22T01:41:07.489Z,26.95
2023-02-22T01:43:37.637Z,28.33
2023-02-22T01:46:08.183Z,25.10
2023-02-22T01:48:41.999Z,22.58
2023-02-22T01:51:15.959Z,20.85
2023-02-22T01:53:49.335Z,24.23
2023-02-22T01:56:18.948Z,21.25
2023-02-22T01:58:51.443Z,25.05
2023-02-22T02:01:22.970Z,23.70
2023-02-22T02:03:53.029Z,22.40
2023-02-22T02:06:22.270Z,21.92
2023-02-22T02:08:58.694Z,25.98
2023-02-22T02:11:27.627Z,23.60
2023-02-22T02:14:00.152Z,22.77
2023-02-22T02:16:41.112Z,25.00
2023-02-22T02:19:17.766Z,21.38
2023-02-22T02:22:30.037Z,21.45
2023-02-22T02:25:31.688Z,20.75
2023-02-22T02:28:17.724Z,19.20
2023-02-22T02:31:07.739Z,18.13
2023-02-22T02:33:43.529Z,21.08
2023-02-22T02:36:18.519Z,22.42
2023-02-22T02:38:51.692Z,19.42
2023-02-22T02:41:26.347Z,20.52
2023-02-22T02:44:00.898Z,22.17
2023-02-22T02:46:34.035Z,21.58
2023-02-22T02:49:06.742Z,19.33
2023-02-22T02:51:38.914Z,18.75
2023-02-22T02:54:08.639Z,20.33
2023-02-22T02:56:36.307Z,21.15
2023-02-22T02:59:03.990Z,22.67
2023-02-22T03:01:45.286Z,18.95
2023-02-22T03:04:34.804Z,18.00
2023-02-22T03:07:20.000Z,19.33
2023-02-22T03:10:00.509Z,16.98
2023-02-22T03:12:39.795Z,17.55
2023-02-22T03:15:21.800Z,16.25
2023-02-22T03:17:55.049Z,23.45
2023-02-22T03:20:31.665Z,16.65
2023-02-22T03:23:09.668Z,17.10
2023-02-22T03:25:44.346Z,15.05
2023-02-22T03:28:17.336Z,21.88
2023-02-22T03:30:52.781Z,15.10
2023-02-22T03:33:28.715Z,15.20
2023-02-22T03:36:04.041Z,19.42
2023-02-22T03:38:34.847Z,18.60
2023-02-22T03:41:03.747Z,16.55
2023-02-22T03:43:37.602Z,18.63
2023-02-22T03:46:11.202Z,13.82
2023-02-22T03:48:45.073Z,16.73
2023-02-22T03:51:17.028Z,14.65
2023-02-22T03:53:47.956Z,14.23
2023-02-22T03:56:21.123Z,15.45
2023-02-22T03:58:50.173Z,14.85
2023-02-22T04:01:23.526Z,16.65
2023-02-22T04:03:51.319Z,14.23
2023-02-22T04:06:20.417Z,18.10
2023-02-22T04:08:48.198Z,19.95
2023-02-22T04:11:16.479Z,15.65
2023-02-22T04:13:45.016Z,13.70
2023-02-22T04:16:12.940Z,14.40
2023-02-22T04:18:40.735Z,15.43
2023-02-22T04:21:09.056Z,14.55
2023-02-22T04:23:42.861Z,18.40
2023-02-22T04:26:12.498Z,16.83
2023-02-22T04:28:40.518Z,15.57
2023-02-22T04:31:14.869Z,14.73
2023-02-22T04:33:43.026Z,14.55
2023-02-22T04:36:13.475Z,15.55
2023-02-22T04:38:42.662Z,15.07
2023-02-22T04:41:11.272Z,15.52
2023-02-22T04:43:39.114Z,12.13
2023-02-22T04:46:15.663Z,13.15
2023-02-22T04:48:43.405Z,15.10
2023-02-22T04:51:11.352Z,11.48
2023-02-22T04:53:46.280Z,14.38
2023-02-22T04:56:13.959Z,19.15
2023-02-22T04:58:41.715Z,18.20
2023-02-22T05:01:09.366Z,17.25
2023-02-22T05:03:38.464Z,17.67
2023-02-22T05:06:06.777Z,10.32
2023-02-22T05:08:34.426Z,19.15
2023-02-22T05:11:03.534Z,17.02
2023-02-22T05:13:31.166Z,9.80
2023-02-22T05:15:58.888Z,13.80
2023-02-22T05:18:26.604Z,8.98
2023-02-22T05:20:54.289Z,9.25
2023-02-22T05:23:21.929Z,12.15
2023-02-22T05:25:49.626Z,8.32
2023-02-22T05:28:18.703Z,13.65
2023-02-22T05:30:47.213Z,8.85
2023-02-22T05:33:14.892Z,13.45
2023-02-22T05:35:42.663Z,11.25
2023-02-22T05:38:14.906Z,11.57
2023-02-22T05:40:43.299Z,9.95
2023-02-22T05:43:11.528Z,8.32
2023-02-22T05:45:40.522Z,8.27
2023-02-22T05:48:08.670Z,8.20
2023-02-22T05:50:36.347Z,8.55
2023-02-22T05:53:05.521Z,9.07
2023-02-22T05:55:33.185Z,8.43
2023-02-22T05:58:01.635Z,7.20
2023-02-22T06:00:31.551Z,6.85
2023-02-22T06:03:02.168Z,6.65
2023-02-22T06:05:30.410Z,7.32
2023-02-22T06:07:59.425Z,8.27
2023-02-22T06:10:27.744Z,7.70
2023-02-22T06:12:56.250Z,7.78
2023-02-22T06:15:25.841Z,8.57
2023-02-22T06:17:54.539Z,8.48
2023-02-22T06:20:25.312Z,7.95
2023-02-22T06:22:55.068Z,8.65
2023-02-22T06:25:26.117Z,9.63
2023-02-22T06:27:53.843Z,8.63
2023-02-22T06:30:22.670Z,9.52
2023-02-22T06:32:54.786Z,11.02
2023-02-22T06:35:24.324Z,10.90
2023-02-22T06:37:52.456Z,9.95
2023-02-22T06:40:20.557Z,10.20
2023-02-22T06:42:50.047Z,10.23
2023-02-22T06:45:19.010Z,10.43
2023-02-22T06:47:47.290Z,10.10
2023-02-22T06:50:23.325Z,9.20
2023-02-22T06:52:52.754Z,15.95
2023-02-22T06:55:22.377Z,11.07
2023-02-22T06:57:50.182Z,10.55
2023-02-22T07:00:19.726Z,8.90
2023-02-22T07:02:48.293Z,9.35
2023-02-22T07:05:18.061Z,9.07
2023-02-22T07:07:46.354Z,10.85
2023-02-22T07:10:20.984Z,10.45
2023-02-22T07:12:49.572Z,9.25
2023-02-22T07:15:19.204Z,8.63
2023-02-22T07:17:46.855Z,10.13
2023-02-22T07:20:14.901Z,10.25
2023-02-22T07:22:42.806Z,9.88
2023-02-22T07:25:12.237Z,13.57
2023-02-22T07:27:42.408Z,11.88
2023-02-22T07:30:18.250Z,10.82
2023-02-22T07:32:47.197Z,8.90
2023-02-22T07:35:16.827Z,8.40
2023-02-22T07:37:44.797Z,8.07
2023-02-22T07:40:13.143Z,11.48
2023-02-22T07:42:56.693Z,7.78
2023-02-22T07:45:26.260Z,7.75
2023-02-22T07:47:54.137Z,8.48
2023-02-22T07:50:23.474Z,8.52
2023-02-22T07:52:53.141Z,7.88
2023-02-22T07:55:24.872Z,9.05
2023-02-22T07:57:56.569Z,8.48
2023-02-22T08:00:26.442Z,9.05
2023-02-22T08:02:54.610Z,9.43
2023-02-22T08:05:24.212Z,9.70
2023-02-22T08:07:52.143Z,10.50
2023-02-22T08:10:22.414Z,9.80
2023-02-22T08:12:50.419Z,9.27
2023-02-22T08:15:21.400Z,7.80
2023-02-22T08:17:49.076Z,7.80
2023-02-22T08:20:17.232Z,8.63
2023-02-22T08:22:45.181Z,9.27
2023-02-22T08:25:15.366Z,8.15
2023-02-22T08:27:44.297Z,8.98
2023-02-22T08:30:16.215Z,8.05
2023-02-22T08:32:46.489Z,9.10
2023-02-22T08:35:14.978Z,9.57
2023-02-22T08:37:44.104Z,9.00
2023-02-22T08:40:14.732Z,9.60
2023-02-22T08:42:42.722Z,9.57
2023-02-22T08:45:11.058Z,9.90
2023-02-22T08:47:38.757Z,10.40
2023-02-22T08:50:09.039Z,11.17
2023-02-22T08:52:36.732Z,10.23
2023-02-22T08:55:04.737Z,10.07
2023-02-22T08:57:32.655Z,9.97
2023-02-22T09:00:00.426Z,10.93
2023-02-22T09:02:28.369Z,10.30
2023-02-22T09:04:56.129Z,10.10
2023-02-22T09:07:25.357Z,11.17
2023-02-22T09:09:53.072Z,11.67
2023-02-22T09:12:20.810Z,12.00
2023-02-22T09:14:48.462Z,10.00
2023-02-22T09:17:16.162Z,12.10
2023-02-22T09:19:45.153Z,10.20
2023-02-22T09:22:12.861Z,10.97
2023-02-22T09:24:43.014Z,10.10
2023-02-22T09:27:12.142Z,10.17
2023-02-22T09:29:40.415Z,12.53
2023-02-22T09:32:08.324Z,11.60
2023-02-22T09:34:36.086Z,11.33
2023-02-22T09:37:04.915Z,11.10
2023-02-22T09:39:37.801Z,10.20
2023-02-22T09:42:13.851Z,10.73
2023-02-22T09:44:49.569Z,12.00
2023-02-22T09:47:21.238Z,10.10
2023-02-22T09:49:57.849Z,10.60
2023-02-22T09:52:29.953Z,10.80
2023-02-22T09:55:09.233Z,10.20
2023-02-22T09:57:41.455Z,9.33
2023-02-22T10:00:19.213Z,9.70
2023-02-22T10:02:53.894Z,9.00
2023-02-22T10:05:28.104Z,9.93
2023-02-22T10:08:01.222Z,10.00
2023-02-22T10:10:33.825Z,9.77
2023-02-22T10:13:10.666Z,10.27
2023-02-22T10:15:47.573Z,9.90
2023-02-22T10:18:51.594Z,8.67
2023-02-22T10:21:38.299Z,8.33
2023-02-22T10:24:16.172Z,8.00
2023-02-22T10:26:46.753Z,10.47
2023-02-22T10:29:25.007Z,9.77
2023-02-22T10:31:57.778Z,8.80
2023-02-22T10:34:28.669Z,10.47
2023-02-22T10:37:00.716Z,9.53
2023-02-22T10:39:31.631Z,9.40
2023-02-22T10:42:06.103Z,9.27
2023-02-22T10:44:36.047Z,9.60
2023-02-22T10:47:06.581Z,9.20
2023-02-22T10:49:38.370Z,9.83
2023-02-22T10:52:14.578Z,8.37
2023-02-22T10:54:46.663Z,9.13
2023-02-22T10:57:14.820Z,9.03
2023-02-22T10:59:44.785Z,8.90
2023-02-22T11:02:20.403Z,8.37
2023-02-22T11:04:50.610Z,9.17
2023-02-22T11:07:25.172Z,8.77
2023-02-22T11:09:55.853Z,8.90
2023-02-22T11:12:30.022Z,8.23
2023-02-22T11:14:59.663Z,8.93
2023-02-22T11:17:33.211Z,8.60
2023-02-22T11:20:01.532Z,8.97
2023-02-22T11:22:32.765Z,8.23
2023-02-22T11:25:03.858Z,7.00
2023-02-22T11:27:38.158Z,7.00
2023-02-22T11:30:29.741Z,7.03
2023-02-22T11:33:00.589Z,7.27
2023-02-22T11:35:36.132Z,6.47
2023-02-22T11:38:18.578Z,6.97
2023-02-22T11:40:46.667Z,7.00
2023-02-22T11:43:17.918Z,6.47
2023-02-22T11:46:04.821Z,6.00
2023-02-22T11:48:36.766Z,6.40
2023-02-22T11:51:17.337Z,5.80
2023-02-22T11:54:11.140Z,6.10
2023-02-22T11:56:44.251Z,5.73
2023-02-22T11:59:25.098Z,5.47
2023-02-22T12:01:59.960Z,5.30
2023-02-22T12:04:44.779Z,5.50
2023-02-22T12:07:27.087Z,5.30
2023-02-22T12:10:05.403Z,5.50
2023-02-22T12:12:49.026Z,5.00
2023-02-22T12:15:28.766Z,5.40
2023-02-22T12:18:05.960Z,5.47
2023-02-22T12:20:39.945Z,4.93
2023-02-22T12:23:19.712Z,4.23
2023-02-22T12:26:02.347Z,3.63
2023-02-22T12:28:37.817Z,5.00
2023-02-22T12:31:18.314Z,5.33
2023-02-22T12:33:56.147Z,4.57
2023-02-22T12:36:32.370Z,4.50
2023-02-22T12:39:07.568Z,4.53
2023-02-22T12:41:40.145Z,5.70
2023-02-22T12:44:11.521Z,4.27
2023-02-22T12:46:43.039Z,5.27
2023-02-22T12:49:18.676Z,4.60
2023-02-22T12:51:53.495Z,4.13
2023-02-22T12:54:28.692Z,4.50
2023-02-22T12:57:01.845Z,3.97
2023-02-22T12:59:33.857Z,4.10
2023-02-22T13:02:12.174Z,4.50
2023-02-22T13:04:41.279Z,4.27
2023-02-22T13:07:19.452Z,5.10
2023-02-22T13:10:15.408Z,4.63
2023-02-22T13:12:52.837Z,4.77
2023-02-22T13:15:31.117Z,6.20
2023-02-22T13:18:07.134Z,5.03
2023-02-22T13:20:40.756Z,5.10
2023-02-22T13:23:15.100Z,4.77
2023-02-22T13:25:48.027Z,4.90
2023-02-22T13:28:25.380Z,5.43
2023-02-22T13:31:05.796Z,4.37
2023-02-22T13:33:49.968Z,5.00
2023-02-22T13:36:36.676Z,5.67
2023-02-22T13:39:20.556Z,5.70
2023-02-22T13:42:05.826Z,5.30
2023-02-22T13:45:13.354Z,5.40
2023-02-22T13:47:58.834Z,5.40
2023-02-22T13:51:01.357Z,5.37
2023-02-22T13:53:39.194Z,5.40
2023-02-22T13:56:07.573Z,6.70
2023-02-22T13:58:48.906Z,5.60
2023-02-22T14:01:39.993Z,6.10
2023-02-22T14:04:34.651Z,5.10
2023-02-22T14:07:03.908Z,5.90
2023-02-22T14:09:48.274Z,5.13
2023-02-22T14:12:50.472Z,6.23
2023-02-22T14:15:29.670Z,6.20
2023-02-22T14:18:00.881Z,6.30
2023-02-22T14:20:32.197Z,5.70
2023-02-22T14:23:34.664Z,4.83
2023-02-22T14:26:15.001Z,6.43
2023-02-22T14:28:51.567Z,5.27
2023-02-22T14:31:35.049Z,5.27
2023-02-22T14:34:08.309Z,6.07
2023-02-22T14:36:52.545Z,4.97
2023-02-22T14:39:26.325Z,6.07
2023-02-22T14:42:01.361Z,6.27
2023-02-22T14:44:33.091Z,6.97
2023-02-22T14:47:07.038Z,6.00
2023-02-22T14:49:42.229Z,6.53
2023-02-22T14:52:20.594Z,6.77
2023-02-22T14:54:58.361Z,6.50
2023-02-22T14:57:39.058Z,6.53
2023-02-22T15:00:20.801Z,7.10
2023-02-22T15:02:50.008Z,6.63
2023-02-22T15:05:20.757Z,5.63
2023-02-22T15:07:53.225Z,6.47
2023-02-22T15:10:26.582Z,7.23
2023-02-22T15:13:28.493Z,7.60
2023-02-22T15:16:00.621Z,7.33
2023-02-22T15:18:34.840Z,6.90
2023-02-22T15:21:08.595Z,7.60
2023-02-22T15:23:45.471Z,7.30
2023-02-22T15:26:28.504Z,8.10
2023-02-22T15:28:59.187Z,7.50
2023-02-22T15:31:31.961Z,7.27
2023-02-22T15:34:11.318Z,8.07
2023-02-22T15:36:39.617Z,8.40
2023-02-22T15:39:08.699Z,8.10
2023-02-22T15:41:37.018Z,9.40
2023-02-22T15:44:22.731Z,8.73
2023-02-22T15:46:54.316Z,8.53
2023-02-22T15:49:24.584Z,6.90
2023-02-22T15:52:06.051Z,8.00
2023-02-22T15:54:47.075Z,6.80
2023-02-22T15:57:17.228Z,9.40
2023-02-22T15:59:50.287Z,9.47
2023-02-22T16:02:30.200Z,8.90
2023-02-22T16:05:05.139Z,8.63
2023-02-22T16:07:33.304Z,9.03
2023-02-22T16:10:08.089Z,9.50
2023-02-22T16:12:36.601Z,8.80
2023-02-22T16:15:17.087Z,10.00
2023-02-22T16:18:01.003Z,9.40
2023-02-22T16:20:35.412Z,12.00
2023-02-22T16:23:24.122Z,10.10
2023-02-22T16:26:06.874Z,8.77
2023-02-22T16:28:35.863Z,10.53
2023-02-22T16:31:05.350Z,9.40
2023-02-22T16:33:33.777Z,10.27
2023-02-22T16:36:07.908Z,10.70
2023-02-22T16:38:38.302Z,9.80
2023-02-22T16:41:07.633Z,10.57
2023-02-22T16:43:36.103Z,10.20
2023-02-22T16:46:06.814Z,9.57
2023-02-22T16:48:38.030Z,10.47
2023-02-22T16:51:14.911Z,9.13
2023-02-22T16:53:42.837Z,10.60
2023-02-22T16:56:12.816Z,9.60
2023-02-22T16:58:42.187Z,9.40
2023-02-22T17:01:12.695Z,9.40
2023-02-22T17:03:40.636Z,9.47
2023-02-22T17:06:10.383Z,9.20
2023-02-22T17:08:38.493Z,9.90
2023-02-22T17:11:07.003Z,9.87
2023-02-22T17:13:35.742Z,10.17
2023-02-22T17:16:03.775Z,10.00
2023-02-22T17:18:34.213Z,9.70
2023-02-22T17:21:03.289Z,10.87
2023-02-22T17:23:30.980Z,9.97
2023-02-22T17:26:02.163Z,9.57
2023-02-22T17:28:31.216Z,11.90
2023-02-22T17:31:01.494Z,10.87
2023-02-22T17:33:34.625Z,10.23
2023-02-22T17:36:04.801Z,10.20
2023-02-22T17:38:34.424Z,12.00
2023-02-22T17:41:03.175Z,12.37
2023-02-22T17:43:30.884Z,12.90
2023-02-22T17:45:58.603Z,11.10
2023-02-22T17:48:27.014Z,13.17
2023-02-22T17:50:56.204Z,11.53
2023-02-22T17:53:25.362Z,11.60
2023-02-22T17:55:54.015Z,11.23
2023-02-22T17:58:23.509Z,13.40
2023-02-22T18:00:51.800Z,11.77
2023-02-22T18:03:24.989Z,11.83
2023-02-22T18:05:56.198Z,12.90
2023-02-22T18:08:26.595Z,14.20
2023-02-22T18:10:56.376Z,14.30
2023-02-22T18:13:26.459Z,13.87
2023-02-22T18:15:54.796Z,13.83
2023-02-22T18:18:23.052Z,13.97
2023-02-22T18:20:51.457Z,13.07
2023-02-22T18:23:26.996Z,13.80
2023-02-22T18:26:09.700Z,12.30
2023-02-22T18:28:38.765Z,14.60
2023-02-22T18:31:08.692Z,15.00
2023-02-22T18:33:36.540Z,13.50
2023-02-22T18:36:04.696Z,14.33
2023-02-22T18:38:32.742Z,15.10
2023-02-22T18:41:04.072Z,16.10
2023-02-22T18:43:34.148Z,15.80
2023-02-22T18:46:12.906Z,15.00
2023-02-22T18:48:41.150Z,15.47
2023-02-22T18:51:10.795Z,15.50
2023-02-22T18:53:40.141Z,15.80
2023-02-22T18:56:10.971Z,14.87
2023-02-22T18:58:39.092Z,16.80
2023-02-22T19:01:07.889Z,15.47
2023-02-22T19:03:38.013Z,17.80
2023-02-22T19:06:08.897Z,17.90
2023-02-22T19:08:39.373Z,21.20
2023-02-22T19:11:10.838Z,17.90
2023-02-22T19:13:38.977Z,17.40
2023-02-22T19:16:08.269Z,16.63
2023-02-22T19:18:36.232Z,18.60
2023-02-22T19:21:08.486Z,19.17
2023-02-22T19:23:36.954Z,18.60
2023-02-22T19:26:09.285Z,18.93
2023-02-22T19:28:38.403Z,18.93
2023-02-22T19:31:17.957Z,19.90
2023-02-22T19:33:47.305Z,19.60
2023-02-22T19:36:16.135Z,22.50
2023-02-22T19:38:44.794Z,23.83
2023-02-22T19:41:15.550Z,21.40
2023-02-22T19:43:45.311Z,22.70
2023-02-22T19:46:13.877Z,22.60
2023-02-22T19:48:42.257Z,22.67
2023-02-22T19:51:11.594Z,24.10
2023-02-22T19:53:40.871Z,23.73
2023-02-22T19:56:10.384Z,24.03
2023-02-22T19:58:38.664Z,25.20
2023-02-22T20:01:14.162Z,26.47
2023-02-22T20:03:42.799Z,31.90
2023-02-22T20:06:11.136Z,29.43
2023-02-22T20:08:41.866Z,29.77
2023-02-22T20:11:10.784Z,28.37
2023-02-22T20:13:39.312Z,31.20
2023-02-22T20:16:07.712Z,30.57
2023-02-22T20:18:37.054Z,31.80
2023-02-22T20:21:08.209Z,32.00
2023-02-22T20:23:36.336Z,31.90
2023-02-22T20:26:04.296Z,30.13
2023-02-22T20:28:34.065Z,32.87
2023-02-22T20:31:01.744Z,32.60
2023-02-22T20:33:29.729Z,34.10
2023-02-22T20:35:58.819Z,30.30
2023-02-22T20:38:26.467Z,31.57
2023-02-22T20:40:54.386Z,31.30
2023-02-22T20:43:22.987Z,34.23
2023-02-22T20:45:51.747Z,34.17
2023-02-22T20:48:19.438Z,35.30
2023-02-22T20:50:47.072Z,34.43
2023-02-22T20:53:16.336Z,35.10
2023-02-22T20:55:49.996Z,33.50
2023-02-22T20:58:18.049Z,32.80
2023-02-22T21:00:45.701Z,34.30
2023-02-22T21:03:13.891Z,35.45
2023-02-22T21:05:45.314Z,34.97
2023-02-22T21:08:15.498Z,33.57
2023-02-22T21:10:46.108Z,34.55
2023-02-22T21:13:14.253Z,35.10
2023-02-22T21:15:43.391Z,35.57
2023-02-22T21:18:11.886Z,35.10
2023-02-22T21:20:41.049Z,35.10
2023-02-22T21:23:08.892Z,35.33
2023-02-22T21:25:36.655Z,33.95
2023-02-22T21:28:06.411Z,33.20
2023-02-22T21:30:34.122Z,35.00
2023-02-22T21:33:02.141Z,36.70
2023-02-22T21:35:29.839Z,37.20
2023-02-22T21:37:58.071Z,35.23
2023-02-22T21:40:26.268Z,35.23
2023-02-22T21:42:54.089Z,35.80
2023-02-22T21:45:23.729Z,34.73
2023-02-22T21:47:54.470Z,33.60
2023-02-22T21:50:25.335Z,38.53
2023-02-22T21:52:52.979Z,38.65
2023-02-22T21:55:21.178Z,38.17
2023-02-22T21:57:48.942Z,35.80
2023-02-22T22:00:18.681Z,35.17
2023-02-22T22:02:48.912Z,34.13
2023-02-22T22:05:33.241Z,36.40
2023-02-22T22:08:01.490Z,36.47
2023-02-22T22:10:30.930Z,37.85
2023-02-22T22:12:59.452Z,36.70
2023-02-22T22:15:27.906Z,36.50
2023-02-22T22:18:05.475Z,37.90
2023-02-22T22:20:33.266Z,37.78
2023-02-22T22:23:00.914Z,39.50
2023-02-22T22:25:29.760Z,40.40
2023-02-22T22:27:57.406Z,41.63
2023-02-22T22:30:25.650Z,38.20
2023-02-22T22:32:53.293Z,39.45
2023-02-22T22:35:22.665Z,43.07
2023-02-22T22:37:51.146Z,44.15
2023-02-22T22:40:19.199Z,41.20
2023-02-22T22:42:47.960Z,42.07
2023-02-22T22:45:17.960Z,41.72
2023-02-22T22:47:46.821Z,41.92
2023-02-22T22:50:15.557Z,39.73
2023-02-22T22:52:44.538Z,41.90
2023-02-22T22:55:12.867Z,40.70
2023-02-22T22:57:41.368Z,46.33
2023-02-22T23:00:33.017Z,43.65
2023-02-22T23:03:00.972Z,42.07
2023-02-22T23:05:29.524Z,45.43
2023-02-22T23:08:04.754Z,46.92
2023-02-22T23:10:32.953Z,44.00
2023-02-22T23:13:00.781Z,48.53
2023-02-22T23:15:28.500Z,41.17
2023-02-22T23:17:59.016Z,45.63
2023-02-22T23:20:27.577Z,42.77
2023-02-22T23:22:57.898Z,44.13
2023-02-22T23:25:27.022Z,45.13
2023-02-22T23:27:54.825Z,46.50
2023-02-22T23:30:22.596Z,45.63
2023-02-22T23:32:50.397Z,48.00
2023-02-22T23:35:19.435Z,46.93
2023-02-22T23:37:52.938Z,50.63
2023-02-22T23:40:20.770Z,51.83
2023-02-22T23:42:50.643Z,46.83
2023-02-22T23:45:23.599Z,47.53
2023-02-22T23:47:54.819Z,50.93
2023-02-22T23:50:24.022Z,55.50
2023-02-22T23:52:56.898Z,56.97
2023-02-22T23:55:25.665Z,51.22
2023-02-22T23:57:59.172Z,54.30
